Observations for AUCKLAND INTL A, New Zealand (NZAA)

NZAA 242030Z AUTO 35002KT 9999 NCD 15/13 Q1021 BECMG FM2100 19010KT 
NZAA 242000Z AUTO 02003KT 9999 SCT031/// BKN038/// BKN045/// 14/12 Q1021 BECMG FM2100 19010KT   
NZAA 241930Z AUTO 04002KT 9999 FEW028/// BKN036/// 13/12 Q1020 BECMG FM2100 19010KT 
NZAA 241900Z AUTO 05003KT 9999 FEW026/// SCT042/// BKN055/// 12/11 Q1020 NOSIG  
NZAA 241830Z AUTO 05003KT 9999 -RA FEW014/// BKN034/// OVC047/// 13/11 Q1020 REDZ NOSIG 
NZAA 241800Z AUTO 14004KT 110V180 9999 SCT033/// BKN055/// 13/12 Q1020 NOSIG
NZAA 241730Z AUTO 35004KT 9999 FEW031/// SCT060/// 12/11 Q1020 NOSIG
NZAA 241700Z AUTO 01003KT 9999 FEW060/// 11/10 Q1020 NOSIG  
NZAA 241630Z AUTO 04002KT 9999 NCD 11/09 Q1020 NOSIG
NZAA 241600Z AUTO 02002KT 9999 FEW033/// 12/10 Q1020 NOSIG  
NZAA 241530Z AUTO 01003KT 9999 NCD 12/10 Q1020 NOSIG
NZAA 241500Z AUTO 10003KT 9999 FEW029/// SCT060/// 13/11 Q1020 NOSIG
NZAA 241430Z AUTO 09002KT 9999 SCT060/// 13/11 Q1020 NOSIG  
NZAA 241400Z AUTO 18004KT 9999 BKN065/// 14/11 Q1021 NOSIG  
NZAA 241330Z AUTO 21008KT 9999 FEW032/// BKN060/// 15/11 Q1021 NOSIG
NZAA 241300Z AUTO 26008KT 9999 FEW034/// BKN065/// 14/11 Q1021 NOSIG
NZAA 241230Z AUTO 23006KT 9999 NCD 14/10 Q1020 NOSIG
NZAA 241200Z AUTO 21008KT 9999 FEW050/// BKN060/// 15/11 Q1020 NOSIG
NZAA 241130Z AUTO 22005KT 9999 FEW060/// 14/11 Q1020 NOSIG  
NZAA 241100Z AUTO 22007KT 9999 SCT060/// 14/10 Q1020 NOSIG  
NZAA 241030Z AUTO 21008KT 9999 BKN060/// 15/11 Q1020 NOSIG  
NZAA 241000Z AUTO 22009KT 9999 BKN060/// 15/10 Q1020 NOSIG  
NZAA 240930Z AUTO 22009KT 9999 NCD 15/10 Q1020 NOSIG
NZAA 240900Z AUTO 22009KT 9999 FEW060/// 16/10 Q1020 NOSIG  
NZAA 240830Z AUTO 22008KT 9999 FEW038/// BKN046/// OVC060/// 16/11 Q1020 NOSIG  
NZAA 240800Z AUTO 25008KT 9999 SCT045/// OVC060/// 16/11 Q1020 NOSIG
NZAA 240730Z AUTO 25006KT 9999 OVC055/// 16/11 Q1020 NOSIG  
NZAA 240700Z AUTO 25006KT 9999 FEW043/// BKN060/// 15/11 Q1020 NOSIG
NZAA 240630Z AUTO 25006KT 9999 FEW042/// BKN055/// 16/10 Q1020 NOSIG
NZAA 240600Z AUTO 25007KT 9999 FEW060/// 15/11 Q1020 NOSIG  
NZAA 240530Z AUTO 25006KT 9999 BKN060/// 16/11 Q1019 NOSIG  
NZAA 240500Z AUTO 24005KT 9999 SCT044/// OVC050/// 16/12 Q1019 NOSIG
NZAA 240430Z AUTO 22006KT 9999 -RA BKN041/// OVC050/// 16/12 Q1020 NOSIG
NZAA 240400Z AUTO 25010KT 9999 BKN041/// BKN048/// OVC060/// 17/11 Q1020 NOSIG  
NZAA 240330Z AUTO 23010KT 9999 SCT046/// BKN060/// 17/11 Q1020 NOSIG
NZAA 240300Z AUTO 22010KT 9999 FEW040/// BKN060/// 18/12 Q1020 NOSIG
NZAA 240230Z AUTO 23010KT 9999 -RA SCT035/// BKN045/// OVC055/// 17/11 Q1020 NOSIG  
NZAA 240200Z AUTO 23006KT 210V270 9999 FEW050/// BKN060/// 18/12 Q1020 NOSIG
NZAA 240130Z AUTO 25009KT 9999 BKN060/// 17/11 Q1021 NOSIG  
NZAA 240100Z AUTO 27010KT 9999 FEW036/// BKN060/// 18/11 Q1021 NOSIG
NZAA 240030Z AUTO 27011KT 9999 SCT028/// OVC060/// 18/12 Q1021 BECMG 24010KT
NZAA 240000Z AUTO 34001KT 9999 -RA SCT032/// SCT041/// BKN050/// 17/12 Q1021 BECMG 24010KT  
NZAA 232330Z AUTO 27003KT 9999 VCSH SCT060/// 17/12 Q1021 NOSIG 
NZAA 232300Z AUTO 32005KT 220V040 9999 OVC060/// 16/12 Q1021 BECMG 24010KT  
NZAA 232230Z AUTO 01003KT 9999 OVC055/// 16/12 Q1022 TEMPO 7000 SHRA BECMG FM2300 24010KT   
NZAA 232200Z AUTO 36004KT 320V020 9999 OVC050/// 16/13 Q1022 TEMPO 7000 SHRA BECMG FM2300 24010KT   
NZAA 232130Z AUTO 06002KT 9999 FEW013/// BKN065/// 15/13 Q1022 TEMPO 7000 SHRA BECMG FM2300 24010KT 
NZAA 232100Z AUTO 33003KT 9999 FEW010/// BKN046/// 14/13 Q1022 TEMPO 7000 SHRA  
NZAA 232030Z AUTO 25006KT 220V300 6000 +DZ FEW007/// SCT012/// BKN019/// 13/12 Q1023 TEMPO 7000 SHRA
NZAA 232000Z AUTO 32005KT 280V350 9999 FEW032/// OVC060/// 14/12 Q1022 TEMPO 7000 SHRA